Time;durP1;ratioP1;P1;durP2;ratioP2;P2;SDS_P1;SDS_P2;PMS_P1;PMS_P2;Temp;Humidity;BMP_temperature;BMP_pressure;BME280_temperature;BME280_humidity;BME280_pressure;Samples;Min_cycle;Max_cycle;Signal;HPM_P1;HPM_P2
2021/05/07 00:01:30;;;;;;;6.37;4.93;;;;;;;7.75;100.00;99525.25;20951998;28;20306;-67
2021/05/07 00:11:31;;;;;;;5.87;4.90;;;;;;;7.79;99.69;99513.47;20930133;28;20203;-66
2021/05/07 00:21:33;;;;;;;20.40;13.03;;;;;;;7.92;100.00;99509.06;20903861;28;20449;-65
2021/05/07 00:31:34;;;;;;;11.60;8.20;;;;;;;7.91;100.00;99502.06;20880193;28;20283;-65
2021/05/07 00:41:34;;;;;;;7.73;5.83;;;;;;;7.87;100.00;99492.56;20890913;28;20224;-65
2021/05/07 00:51:35;;;;;;;4.73;4.27;;;;;;;7.86;100.00;99477.59;20885073;28;20219;-66
2021/05/07 01:11:31;;;;;;;7.73;6.93;;;;;;;7.86;100.00;99469.63;20881122;27;20614;-67
2021/05/07 01:21:33;;;;;;;6.57;5.90;;;;;;;7.90;100.00;99452.53;20853287;28;20223;-66
2021/05/07 01:31:33;;;;;;;9.37;8.47;;;;;;;7.80;100.00;99446.13;20872998;28;20212;-67
2021/05/07 01:41:33;;;;;;;8.00;7.30;;;;;;;7.74;100.00;99438.56;20851237;28;20227;-67
2021/05/07 01:51:34;;;;;;;15.97;11.30;;;;;;;7.86;100.00;99440.41;20871749;28;20220;-67
2021/05/07 02:01:34;;;;;;;8.63;7.73;;;;;;;7.63;100.00;99427.81;20868480;28;20717;-68
2021/05/07 02:11:35;;;;;;;10.13;8.23;;;;;;;7.51;100.00;99414.41;20873103;28;20220;-67
2021/05/07 02:21:36;;;;;;;9.00;7.87;;;;;;;7.45;100.00;99388.28;20833278;28;20595;-65
2021/05/07 02:31:36;;;;;;;9.60;7.93;;;;;;;7.43;100.00;99384.88;20803140;28;20243;-65
2021/05/07 02:41:37;;;;;;;10.40;9.27;;;;;;;7.42;100.00;99371.69;20809959;28;20665;-66
2021/05/07 02:51:37;;;;;;;11.87;9.83;;;;;;;7.54;100.00;99349.63;20794105;28;20213;-65
2021/05/07 03:01:37;;;;;;;12.67;10.93;;;;;;;7.68;100.00;99335.44;20809745;28;20216;-64
2021/05/07 03:11:38;;;;;;;11.30;10.00;;;;;;;7.79;100.00;99322.28;20790063;28;20231;-64
2021/05/07 03:21:39;;;;;;;11.25;10.05;;;;;;;7.90;100.00;99319.72;20808163;28;20212;-65
2021/05/07 03:31:39;;;;;;;13.70;12.10;;;;;;;7.97;100.00;99299.72;20788814;28;20224;-67
2021/05/07 03:41:39;;;;;;;10.13;9.13;;;;;;;8.18;100.00;99314.19;20804802;28;20561;-66
2021/05/07 03:51:40;;;;;;;11.40;10.20;;;;;;;8.20;100.00;99291.03;20796512;28;20304;-66
2021/05/07 04:01:40;;;;;;;12.33;10.17;;;;;;;8.24;100.00;99292.50;20796704;28;20225;-65
2021/05/07 04:21:47;;;;;;;10.17;8.47;;;;;;;8.42;100.00;99319.63;20787828;28;20760;-66
2021/05/07 04:31:48;;;;;;;15.10;11.33;;;;;;;8.40;100.00;99318.00;20804452;28;20228;-65
2021/05/07 04:51:45;;;;;;;10.53;9.07;;;;;;;8.46;100.00;99309.59;20866747;27;20609;-64
2021/05/07 05:11:42;;;;;;;10.93;8.90;;;;;;;8.41;100.00;99311.75;20939740;27;882844;-60
2021/05/07 05:21:43;;;;;;;10.03;9.03;;;;;;;8.33;100.00;99311.44;20944715;28;20227;-61
2021/05/07 05:31:44;;;;;;;10.13;9.13;;;;;;;8.41;100.00;99303.78;20924268;28;20235;-65
2021/05/07 05:41:44;;;;;;;10.70;9.60;;;;;;;8.36;100.00;99304.09;21019737;28;20215;-60
2021/05/07 05:51:45;;;;;;;10.68;9.70;;;;;;;8.54;100.00;99310.75;21019510;28;20221;-61
2021/05/07 06:01:45;;;;;;;8.43;7.63;;;;;;;8.83;100.00;99305.97;21034679;28;20204;-62
2021/05/07 06:11:46;;;;;;;8.33;7.50;;;;;;;9.28;100.00;99290.22;21014752;28;20215;-61
2021/05/07 06:21:46;;;;;;;11.07;9.30;;;;;;;8.93;100.00;99312.34;20988297;28;20213;-61
2021/05/07 06:31:47;;;;;;;10.77;9.67;;;;;;;8.36;100.00;99301.44;20956909;28;20233;-61
2021/05/07 06:41:47;;;;;;;12.80;11.17;;;;;;;7.49;100.00;99307.47;20895671;28;20219;-61
2021/05/07 06:51:48;;;;;;;15.17;13.57;;;;;;;7.94;100.00;99299.97;20891742;28;20223;-67
2021/05/07 07:01:49;;;;;;;18.60;14.27;;;;;;;7.40;100.00;99300.13;20871706;28;20226;-67
2021/05/07 07:11:49;;;;;;;14.97;11.10;;;;;;;7.66;100.00;99310.78;20872315;28;20314;-59
2021/05/07 07:21:49;;;;;;;13.83;10.67;;;;;;;7.41;100.00;99319.56;20862431;28;20462;-60
2021/05/07 07:31:51;;;;;;;9.77;7.72;;;;;;;7.38;100.00;99317.97;20866242;28;20277;-63
2021/05/07 07:51:48;;;;;;;4.10;3.70;;;;;;;7.49;100.00;99334.00;20802885;27;20564;-64
2021/05/07 08:01:49;;;;;;;4.30;3.90;;;;;;;7.78;100.00;99341.81;20811250;28;20235;-59
2021/05/07 08:11:51;;;;;;;4.53;3.47;;;;;;;7.78;100.00;99353.28;20792824;28;20230;-61
2021/05/07 08:21:52;;;;;;;3.20;2.97;;;;;;;8.00;100.00;99368.59;20811129;28;20226;-59
2021/05/07 08:31:53;;;;;;;1.90;1.80;;;;;;;8.41;98.15;99378.19;20791214;28;20739;-61
2021/05/07 08:41:53;;;;;;;2.10;1.90;;;;;;;8.77;95.80;99370.25;20804764;28;20590;-59
2021/05/07 08:51:55;;;;;;;1.90;1.70;;;;;;;9.28;91.68;99386.06;20793354;28;20218;-61
2021/05/07 09:01:56;;;;;;;2.13;1.97;;;;;;;9.53;90.86;99380.63;20753797;28;20356;-61
2021/05/07 09:12:01;;;;;;;2.07;1.97;;;;;;;10.13;92.25;99389.38;20745935;28;20332;-61
2021/05/07 09:22:02;;;;;;;2.17;1.80;;;;;;;10.45;87.72;99417.09;20741638;28;20219;-60
2021/05/07 09:32:03;;;;;;;1.90;1.70;;;;;;;10.62;84.06;99431.78;20749119;28;20314;-60
2021/05/07 09:42:04;;;;;;;1.80;1.70;;;;;;;10.93;82.02;99427.53;20727844;28;20270;-59
2021/05/07 09:52:05;;;;;;;1.60;1.50;;;;;;;11.22;79.94;99439.38;20746457;28;20224;-61
2021/05/07 10:02:05;;;;;;;1.57;1.47;;;;;;;11.34;77.37;99437.53;20711025;28;20718;-61
2021/05/07 10:12:07;;;;;;;1.85;1.63;;;;;;;11.01;78.66;99441.94;20743787;28;20789;-65
2021/05/07 10:22:10;;;;;;;2.20;2.00;;;;;;;10.37;80.91;99462.19;20732639;28;20330;-59
2021/05/07 10:32:11;;;;;;;2.90;2.67;;;;;;;10.07;85.30;99476.00;20737903;28;20240;-59
2021/05/07 10:42:14;;;;;;;3.50;2.80;;;;;;;9.51;87.73;99483.75;20737681;28;20245;-59
2021/05/07 10:52:16;;;;;;;3.20;2.90;;;;;;;9.57;87.38;99483.28;20713512;28;20234;-64
2021/05/07 11:02:17;;;;;;;3.20;3.00;;;;;;;10.36;82.25;99488.00;20742563;28;20254;-59
2021/05/07 11:12:21;;;;;;;2.70;2.10;;;;;;;10.58;82.06;99471.19;20723505;28;20227;-59
2021/05/07 11:22:26;;;;;;;2.60;2.20;;;;;;;11.16;78.15;99472.75;20737630;28;20243;-59
2021/05/07 11:32:26;;;;;;;2.40;1.73;;;;;;;12.90;74.35;99468.88;20721849;28;21657;-66
2021/05/07 11:42:35;;;;;;;1.50;1.40;;;;;;;15.10;66.08;99480.66;20740691;28;20234;-59
2021/05/07 11:52:39;;;;;;;1.63;1.53;;;;;;;16.15;64.16;99486.44;20725253;28;20258;-65
2021/05/07 12:02:40;;;;;;;1.80;1.30;;;;;;;15.29;62.28;99506.63;20811136;22;20326;-55
2021/05/07 12:12:42;;;;;;;1.93;1.10;;;;;;;13.52;65.67;99505.38;20840253;28;20225;-54
2021/05/07 12:22:43;;;;;;;1.37;1.37;;;;;;;13.20;66.34;99503.69;20869779;28;20299;-53
2021/05/07 12:32:59;;;;;;;2.27;1.90;;;;;;;14.24;62.42;99510.38;20892023;28;20577;-54
2021/05/07 12:43:00;;;;;;;1.60;1.50;;;;;;;14.36;63.24;99510.09;20888186;28;20218;-62
2021/05/07 12:53:00;;;;;;;1.50;1.40;;;;;;;13.44;64.72;99505.19;20885644;28;20693;-56
2021/05/07 13:03:02;;;;;;;1.73;1.63;;;;;;;13.89;65.25;99506.38;20894519;28;20229;-54
2021/05/07 13:13:03;;;;;;;1.70;1.43;;;;;;;14.39;61.85;99511.63;20856823;28;20230;-52
2021/05/07 13:23:04;;;;;;;1.90;1.80;;;;;;;13.02;65.38;99521.34;20859867;28;20287;-59
2021/05/07 13:33:05;;;;;;;2.23;2.13;;;;;;;11.80;80.83;99507.66;20856422;28;20249;-59
2021/05/07 13:43:06;;;;;;;2.23;2.13;;;;;;;12.13;81.45;99529.88;20878804;28;20242;-56
2021/05/07 13:53:06;;;;;;;2.33;2.17;;;;;;;13.24;72.73;99526.56;20848868;28;20231;-60
2021/05/07 14:03:07;;;;;;;1.80;1.70;;;;;;;14.24;67.03;99532.72;20868136;28;20225;-56
2021/05/07 14:13:07;;;;;;;1.73;1.63;;;;;;;14.99;63.31;99552.56;20861673;28;20724;-54
2021/05/07 14:23:09;;;;;;;1.77;1.67;;;;;;;15.46;62.64;99559.59;20863228;28;20234;-52
2021/05/07 14:33:11;;;;;;;2.20;2.10;;;;;;;15.12;61.78;99562.00;20841943;28;21305;-70
2021/05/07 14:43:12;;;;;;;2.20;2.10;;;;;;;14.81;62.03;99573.09;20829550;28;20324;-53
2021/05/07 14:53:13;;;;;;;6.83;4.27;;;;;;;14.38;63.82;99582.41;20883212;28;20829;-53
2021/05/07 15:03:13;;;;;;;2.90;2.70;;;;;;;14.18;65.63;99591.44;20839819;28;20226;-54
2021/05/07 15:13:14;;;;;;;2.80;2.60;;;;;;;13.76;64.54;99590.78;20802367;28;20282;-55
2021/05/07 15:23:14;;;;;;;3.33;3.03;;;;;;;13.28;66.24;99597.63;20785333;28;20230;-56
2021/05/07 15:33:15;;;;;;;3.73;3.43;;;;;;;12.81;68.24;99598.16;20796748;28;20213;-55
2021/05/07 15:43:15;;;;;;;4.63;4.03;;;;;;;12.42;70.10;99602.38;20789649;28;20224;-70
2021/05/07 15:53:16;;;;;;;4.10;3.80;;;;;;;12.15;70.95;99605.50;20792045;28;20438;-68
2021/05/07 16:03:18;;;;;;;12.77;7.90;;;;;;;11.68;73.91;99612.00;20797106;28;20246;-67
2021/05/07 16:13:18;;;;;;;7.43;6.50;;;;;;;11.27;76.69;99623.28;20800114;28;20235;-73
2021/05/07 16:23:19;;;;;;;7.43;6.73;;;;;;;10.85;77.22;99636.31;20817587;28;20224;-72
2021/05/07 16:33:19;;;;;;;6.30;5.80;;;;;;;10.40;79.70;99648.63;20796356;28;20531;-72
2021/05/07 16:43:19;;;;;;;7.63;6.77;;;;;;;10.02;82.74;99656.75;20877695;28;20230;-70
2021/05/07 16:53:20;;;;;;;11.57;10.37;;;;;;;9.88;89.06;99678.22;20850778;28;20810;-54
2021/05/07 17:03:21;;;;;;;11.20;10.10;;;;;;;9.44;92.84;99690.16;20891037;28;20374;-69
2021/05/07 17:13:21;;;;;;;9.20;8.30;;;;;;;9.08;93.90;99703.34;20883563;28;20737;-54
2021/05/07 17:23:22;;;;;;;5.93;5.25;;;;;;;8.57;94.40;99727.19;20886199;28;20560;-54
2021/05/07 17:33:23;;;;;;;3.70;3.40;;;;;;;7.78;94.25;99748.16;20890539;28;20212;-56
2021/05/07 17:43:24;;;;;;;3.20;2.90;;;;;;;7.36;97.99;99765.75;20876923;28;20527;-54
2021/05/07 17:53:24;;;;;;;2.77;2.50;;;;;;;7.04;99.85;99758.84;20892726;28;20284;-55
2021/05/07 18:03:25;;;;;;;2.60;2.40;;;;;;;6.79;100.00;99776.16;20872013;28;20645;-55
2021/05/07 18:13:27;;;;;;;2.80;2.60;;;;;;;6.68;100.00;99775.06;20891186;28;20220;-53
2021/05/07 18:23:27;;;;;;;2.80;2.60;;;;;;;6.64;100.00;99792.94;20870407;28;20442;-60
2021/05/07 18:33:28;;;;;;;2.72;2.53;;;;;;;6.82;100.00;99807.81;20872963;28;20219;-54
2021/05/07 18:43:28;;;;;;;2.37;2.17;;;;;;;6.78;100.00;99810.72;20876247;28;20211;-55
2021/05/07 18:53:30;;;;;;;3.90;2.80;;;;;;;6.59;100.00;99837.44;20880594;28;20216;-54
2021/05/07 19:03:30;;;;;;;2.20;1.87;;;;;;;6.55;100.00;99856.22;20881403;28;20236;-55
2021/05/07 19:13:31;;;;;;;2.63;1.90;;;;;;;6.59;100.00;99871.88;20872093;28;20298;-54
2021/05/07 19:23:31;;;;;;;2.33;2.17;;;;;;;6.58;100.00;99871.97;20885957;28;20269;-54
2021/05/07 19:33:32;;;;;;;2.60;2.40;;;;;;;6.60;100.00;99881.56;20865658;28;20868;-53
2021/05/07 19:43:33;;;;;;;3.43;2.63;;;;;;;6.59;100.00;99893.09;20884054;28;20218;-53
2021/05/07 19:53:34;;;;;;;2.53;2.33;;;;;;;6.58;100.00;99883.44;20865268;28;20898;-66
2021/05/07 20:03:34;;;;;;;3.37;2.90;;;;;;;6.58;98.49;99893.19;20883322;28;20286;-54
2021/05/07 20:13:35;;;;;;;5.13;3.97;;;;;;;6.48;99.78;99896.34;20870060;28;20208;-56
2021/05/07 20:33:33;;;;;;;4.10;3.70;;;;;;;6.41;100.00;99924.09;20958421;27;20556;-59
2021/05/07 20:53:29;;;;;;;5.27;4.80;;;;;;;6.24;100.00;99936.53;20961896;27;20551;-58
2021/05/07 21:03:29;;;;;;;6.33;5.30;;;;;;;6.04;100.00;99942.84;20934871;27;20226;-58
2021/05/07 21:13:30;;;;;;;5.60;5.00;;;;;;;5.97;100.00;99952.91;20953893;27;20308;-59
2021/05/07 21:23:30;;;;;;;5.25;4.75;;;;;;;5.85;100.00;99965.91;20940862;28;20666;-68
2021/05/07 21:33:31;;;;;;;3.17;2.87;;;;;;;5.46;100.00;99995.19;20952975;28;20226;-66
2021/05/07 21:43:31;;;;;;;3.15;2.85;;;;;;;5.05;100.00;100019.19;20939576;28;20478;-73
2021/05/07 21:53:32;;;;;;;3.37;3.07;;;;;;;4.71;100.00;100038.34;20944956;28;20313;-67
2021/05/07 22:03:32;;;;;;;3.60;3.30;;;;;;;4.47;100.00;100036.81;20895027;28;20228;-57
2021/05/07 22:13:33;;;;;;;1.50;1.40;;;;;;;4.00;100.00;100066.09;20879174;28;20225;-66
2021/05/07 22:23:34;;;;;;;1.37;1.30;;;;;;;3.38;100.00;100084.47;20894914;28;20504;-66
2021/05/07 22:33:34;;;;;;;2.30;2.00;;;;;;;2.83;100.00;100100.56;20873912;28;20220;-60
2021/05/07 22:43:35;;;;;;;2.33;2.03;;;;;;;2.67;100.00;100117.81;20891929;28;20462;-60
2021/05/07 23:33:22;;;;;;;2.90;2.70;;;;;;;3.60;100.00;100164.50;20796870;28;20600;-57
2021/05/07 23:43:22;;;;;;;3.10;2.90;;;;;;;3.86;100.00;100179.31;20776105;28;20299;-55
